createdAt,value
2018-08-27T00:00:55.588Z,14.73
2018-08-27T00:01:56.150Z,14.88
2018-08-27T00:02:56.714Z,14.84
2018-08-27T00:03:57.259Z,14.82
2018-08-27T00:04:57.811Z,14.85
2018-08-27T00:05:58.364Z,14.86
2018-08-27T00:06:58.917Z,14.78
2018-08-27T00:07:59.472Z,14.81
2018-08-27T00:09:00.028Z,14.70
2018-08-27T00:10:00.582Z,14.77
2018-08-27T00:11:01.138Z,14.73
2018-08-27T00:12:01.686Z,14.75
2018-08-27T00:13:02.237Z,14.73
2018-08-27T00:14:02.784Z,14.70
2018-08-27T00:15:03.335Z,14.72
2018-08-27T00:16:03.889Z,14.62
2018-08-27T00:17:04.440Z,14.63
2018-08-27T00:18:04.982Z,14.65
2018-08-27T00:19:05.534Z,14.66
2018-08-27T00:20:06.084Z,14.69
2018-08-27T00:21:06.631Z,14.75
2018-08-27T00:22:07.181Z,14.82
2018-08-27T00:23:07.737Z,14.75
2018-08-27T00:24:08.287Z,14.75
2018-08-27T00:25:08.839Z,14.78
2018-08-27T00:26:09.392Z,14.77
2018-08-27T00:27:09.943Z,14.77
2018-08-27T00:28:10.497Z,14.70
2018-08-27T00:29:11.051Z,14.81
2018-08-27T00:30:11.601Z,14.81
2018-08-27T00:31:12.154Z,14.82
2018-08-27T00:32:12.701Z,14.82
2018-08-27T00:33:13.255Z,14.85
2018-08-27T00:34:13.804Z,14.81
2018-08-27T00:35:14.351Z,14.94
2018-08-27T00:36:14.908Z,14.95
2018-08-27T00:37:15.458Z,14.89
2018-08-27T00:38:16.011Z,14.94
2018-08-27T00:39:16.605Z,14.86
2018-08-27T00:40:17.109Z,14.89
2018-08-27T00:41:17.661Z,14.88
2018-08-27T00:42:18.214Z,14.95
2018-08-27T00:43:18.767Z,14.95
2018-08-27T00:44:19.322Z,14.85
2018-08-27T00:45:19.873Z,15.04
2018-08-27T00:46:20.422Z,14.92
2018-08-27T00:47:20.981Z,14.88
2018-08-27T00:48:21.532Z,15.00
2018-08-27T00:49:22.078Z,15.03
2018-08-27T00:50:22.624Z,15.00
2018-08-27T00:51:23.167Z,15.04
2018-08-27T00:52:23.709Z,15.04
2018-08-27T00:53:24.262Z,15.04
2018-08-27T00:54:24.807Z,15.14
2018-08-27T00:55:25.363Z,15.11
2018-08-27T00:56:25.914Z,15.07
2018-08-27T00:57:26.466Z,15.06
2018-08-27T00:58:27.015Z,15.07
2018-08-27T00:59:27.569Z,15.07
2018-08-27T01:00:28.127Z,15.00
2018-08-27T01:01:28.678Z,15.17
2018-08-27T01:02:29.229Z,15.21
2018-08-27T01:03:29.782Z,15.07
2018-08-27T01:04:30.325Z,15.22
2018-08-27T01:05:30.873Z,15.18
2018-08-27T01:06:31.426Z,15.19
2018-08-27T01:07:31.979Z,15.21
2018-08-27T01:08:32.536Z,15.24
2018-08-27T01:09:33.084Z,15.07
2018-08-27T01:10:33.639Z,15.06
2018-08-27T01:11:34.184Z,15.06
2018-08-27T01:12:34.739Z,15.00
2018-08-27T01:13:35.297Z,15.00
2018-08-27T01:14:35.843Z,15.00
2018-08-27T01:15:36.395Z,15.07
2018-08-27T01:16:36.952Z,14.96
2018-08-27T01:17:37.501Z,14.94
2018-08-27T01:18:38.050Z,14.95
2018-08-27T01:19:38.602Z,14.89
2018-08-27T01:20:39.155Z,14.94
2018-08-27T01:21:39.698Z,14.89
2018-08-27T01:22:40.293Z,14.81
2018-08-27T01:23:40.797Z,14.72
2018-08-27T01:24:41.348Z,14.66
2018-08-27T01:25:41.892Z,14.66
2018-08-27T01:26:42.439Z,14.48
2018-08-27T01:27:42.994Z,14.51
2018-08-27T01:28:43.535Z,14.57
2018-08-27T01:29:44.088Z,14.55
2018-08-27T01:30:44.646Z,14.50
2018-08-27T01:31:45.192Z,14.47
2018-08-27T01:32:45.744Z,14.52
2018-08-27T01:33:46.301Z,14.47
2018-08-27T01:34:46.855Z,14.52
2018-08-27T01:35:47.404Z,14.52
2018-08-27T01:36:47.948Z,14.55
2018-08-27T01:37:48.503Z,14.51
2018-08-27T01:38:49.064Z,14.55
2018-08-27T01:39:49.608Z,14.65
2018-08-27T01:40:50.158Z,14.63
2018-08-27T01:41:50.703Z,14.69
2018-08-27T01:42:51.257Z,14.69
2018-08-27T01:43:51.814Z,14.69
2018-08-27T01:44:52.408Z,14.70
2018-08-27T01:45:52.906Z,14.75
2018-08-27T01:46:53.450Z,14.77
2018-08-27T01:47:53.994Z,14.77
2018-08-27T01:48:54.549Z,14.85
2018-08-27T01:49:55.101Z,14.77
2018-08-27T01:50:55.655Z,14.82
2018-08-27T01:51:56.208Z,14.77
2018-08-27T01:52:56.759Z,14.78
2018-08-27T01:53:57.312Z,14.72
2018-08-27T01:54:57.861Z,14.63
2018-08-27T01:55:58.414Z,14.72
2018-08-27T01:56:58.966Z,14.70
2018-08-27T01:57:59.518Z,14.69
2018-08-27T01:59:00.067Z,14.57
2018-08-27T02:00:00.621Z,14.66
2018-08-27T02:01:01.169Z,14.60
2018-08-27T02:02:01.724Z,14.66
2018-08-27T02:03:02.273Z,14.58
2018-08-27T02:04:02.824Z,14.65
2018-08-27T02:05:03.376Z,14.50
2018-08-27T02:06:03.930Z,14.55
2018-08-27T02:07:04.486Z,14.58
2018-08-27T02:08:05.035Z,14.55
2018-08-27T02:09:05.594Z,14.57
2018-08-27T02:10:06.141Z,14.50
2018-08-27T02:11:06.695Z,14.51
2018-08-27T02:12:07.244Z,14.50
2018-08-27T02:13:07.787Z,14.43
2018-08-27T02:14:08.338Z,14.45
2018-08-27T02:15:08.891Z,14.50
2018-08-27T02:16:09.445Z,14.44
2018-08-27T02:17:09.996Z,14.48
2018-08-27T02:18:10.540Z,14.47
2018-08-27T02:19:11.095Z,14.40
2018-08-27T02:20:11.646Z,14.47
2018-08-27T02:21:12.200Z,14.40
2018-08-27T02:22:12.746Z,14.40
2018-08-27T02:23:13.296Z,14.44
2018-08-27T02:24:13.851Z,14.44
2018-08-27T02:25:14.405Z,14.47
2018-08-27T02:26:14.956Z,14.47
2018-08-27T02:27:15.510Z,14.50
2018-08-27T02:28:16.062Z,14.52
2018-08-27T02:29:16.612Z,14.43
2018-08-27T02:30:17.168Z,14.30
2018-08-27T02:31:17.709Z,14.37
2018-08-27T02:32:18.314Z,14.48
2018-08-27T02:33:18.813Z,14.40
2018-08-27T02:34:19.356Z,14.47
2018-08-27T02:35:19.906Z,14.45
2018-08-27T02:36:20.460Z,14.37
2018-08-27T02:37:21.009Z,14.35
2018-08-27T02:38:21.559Z,14.39
2018-08-27T02:39:22.104Z,14.44
2018-08-27T02:40:22.660Z,14.47
2018-08-27T02:41:23.214Z,14.50
2018-08-27T02:42:23.761Z,14.47
2018-08-27T02:43:24.314Z,14.47
2018-08-27T02:44:24.878Z,14.47
2018-08-27T02:45:25.411Z,14.48
2018-08-27T02:46:25.965Z,14.51
2018-08-27T02:47:26.518Z,14.44
2018-08-27T02:48:27.070Z,14.48
2018-08-27T02:49:27.624Z,14.52
2018-08-27T02:50:28.176Z,14.48
2018-08-27T02:51:28.732Z,14.48
2018-08-27T02:52:29.287Z,14.45
2018-08-27T02:53:29.841Z,14.47
2018-08-27T02:54:30.393Z,14.52
2018-08-27T02:55:30.943Z,14.47
2018-08-27T02:56:31.487Z,14.51
2018-08-27T02:57:32.038Z,14.50
2018-08-27T02:58:32.590Z,14.55
2018-08-27T02:59:33.142Z,14.45
2018-08-27T03:00:33.696Z,14.45
2018-08-27T03:01:34.250Z,14.43
2018-08-27T03:02:34.803Z,14.48
2018-08-27T03:03:35.352Z,14.43
2018-08-27T03:04:35.908Z,14.50
2018-08-27T03:05:36.458Z,14.48
2018-08-27T03:06:37.011Z,14.51
2018-08-27T03:07:37.562Z,14.44
2018-08-27T03:09:03.790Z,14.44
2018-08-27T03:10:04.344Z,14.40
2018-08-27T03:11:04.890Z,14.48
2018-08-27T03:12:05.443Z,14.51
2018-08-27T03:13:05.999Z,14.58
2018-08-27T03:14:06.534Z,14.54
2018-08-27T03:15:07.085Z,14.51
2018-08-27T03:16:07.631Z,14.62
2018-08-27T03:17:08.210Z,14.54
2018-08-27T03:18:08.732Z,14.55
2018-08-27T03:19:09.278Z,14.63
2018-08-27T03:20:09.821Z,14.60
2018-08-27T03:21:10.369Z,14.62
2018-08-27T03:22:10.923Z,14.58
2018-08-27T03:23:11.480Z,14.57
2018-08-27T03:24:12.020Z,14.48
2018-08-27T03:25:12.576Z,14.55
2018-08-27T03:26:13.127Z,14.62
2018-08-27T03:27:13.680Z,14.58
2018-08-27T03:28:14.229Z,14.65
2018-08-27T03:29:14.781Z,14.54
2018-08-27T03:30:15.334Z,14.63
2018-08-27T03:31:15.884Z,14.60
2018-08-27T03:32:16.446Z,14.68
2018-08-27T03:33:16.988Z,14.73
2018-08-27T03:34:17.544Z,14.68
2018-08-27T03:35:18.099Z,14.57
2018-08-27T03:36:18.640Z,14.69
2018-08-27T03:37:19.187Z,14.63
2018-08-27T03:38:19.739Z,14.63
2018-08-27T03:39:20.288Z,14.72
2018-08-27T03:40:20.839Z,14.69
2018-08-27T03:41:21.388Z,14.72
2018-08-27T03:42:21.939Z,14.78
2018-08-27T03:43:22.482Z,14.78
2018-08-27T03:44:23.032Z,14.72
2018-08-27T03:45:23.586Z,14.72
2018-08-27T03:46:24.139Z,14.82
2018-08-27T03:47:24.682Z,14.82
2018-08-27T03:48:25.241Z,14.82
2018-08-27T03:49:25.791Z,14.91
2018-08-27T03:50:26.343Z,14.92
2018-08-27T03:51:26.889Z,14.86
2018-08-27T03:52:27.449Z,14.95
2018-08-27T03:53:27.996Z,14.94
2018-08-27T03:54:28.551Z,14.95
2018-08-27T03:55:29.113Z,15.03
2018-08-27T03:56:29.654Z,14.96
2018-08-27T03:57:30.208Z,14.99
2018-08-27T03:58:30.763Z,15.03
2018-08-27T03:59:31.316Z,14.99
2018-08-27T04:00:31.874Z,14.95
2018-08-27T04:01:32.422Z,15.03
2018-08-27T04:02:32.973Z,15.01
2018-08-27T04:03:33.527Z,15.03
2018-08-27T04:04:34.078Z,15.04
2018-08-27T04:05:34.639Z,15.01
2018-08-27T04:06:35.182Z,15.03
2018-08-27T04:07:35.731Z,15.06
2018-08-27T04:08:36.277Z,15.10
2018-08-27T04:09:36.832Z,15.09
2018-08-27T04:10:37.385Z,15.10
2018-08-27T04:11:37.935Z,15.07
2018-08-27T04:12:38.483Z,15.07
2018-08-27T04:13:39.063Z,15.06
2018-08-27T04:14:39.632Z,15.03
2018-08-27T04:15:40.188Z,15.13
2018-08-27T04:16:40.895Z,15.21
2018-08-27T04:17:41.444Z,15.21
2018-08-27T04:18:41.999Z,15.21
2018-08-27T04:19:42.552Z,15.19
2018-08-27T04:20:43.104Z,15.22
2018-08-27T04:21:43.662Z,15.25
2018-08-27T04:22:44.211Z,15.17
2018-08-27T04:23:44.760Z,15.21
2018-08-27T04:24:45.312Z,15.26
2018-08-27T04:25:45.867Z,15.25
2018-08-27T04:26:46.419Z,15.24
2018-08-27T04:27:46.972Z,15.24
2018-08-27T04:28:47.644Z,15.14
2018-08-27T04:29:48.080Z,15.13
2018-08-27T04:30:48.634Z,15.19
2018-08-27T04:31:49.187Z,15.29
2018-08-27T04:32:49.742Z,15.25
2018-08-27T04:33:50.289Z,15.28
2018-08-27T04:34:50.913Z,15.29
2018-08-27T04:35:51.383Z,15.29
2018-08-27T04:36:51.939Z,15.32
2018-08-27T04:37:52.497Z,15.28
2018-08-27T04:38:53.079Z,15.37
2018-08-27T04:39:53.604Z,15.36
2018-08-27T04:40:54.163Z,15.44
2018-08-27T04:41:54.718Z,15.46
2018-08-27T04:42:55.271Z,15.49
2018-08-27T04:43:55.825Z,15.42
2018-08-27T04:44:56.388Z,15.44
2018-08-27T04:45:56.939Z,15.50
2018-08-27T04:46:57.538Z,15.51
2018-08-27T04:47:58.055Z,15.59
2018-08-27T04:48:58.608Z,15.58
2018-08-27T04:49:59.165Z,15.61
2018-08-27T04:50:59.725Z,15.61
2018-08-27T04:52:00.278Z,15.73
2018-08-27T04:53:00.828Z,15.59
2018-08-27T04:54:01.384Z,15.65
2018-08-27T04:55:01.944Z,15.69
2018-08-27T04:56:02.498Z,15.68
2018-08-27T04:57:03.055Z,15.65
2018-08-27T04:58:03.618Z,15.73
2018-08-27T04:59:04.170Z,15.79
2018-08-27T05:00:04.719Z,15.80
2018-08-27T05:01:05.281Z,15.79
2018-08-27T05:02:05.834Z,15.91
2018-08-27T05:03:06.394Z,15.82
2018-08-27T05:04:06.954Z,15.95
2018-08-27T05:05:07.509Z,15.94
2018-08-27T05:06:08.065Z,15.89
2018-08-27T05:07:08.625Z,15.84
2018-08-27T05:08:09.181Z,15.87
2018-08-27T05:09:09.739Z,15.94
2018-08-27T05:10:10.300Z,15.95
2018-08-27T05:11:10.847Z,15.98
2018-08-27T05:12:11.406Z,15.94
2018-08-27T05:13:11.999Z,15.99
2018-08-27T05:14:12.510Z,16.02
2018-08-27T05:15:13.069Z,15.97
2018-08-27T05:16:13.628Z,16.01
2018-08-27T05:17:14.175Z,15.99
2018-08-27T05:18:14.732Z,15.99
2018-08-27T05:19:15.356Z,16.07
2018-08-27T05:20:15.837Z,16.08
2018-08-27T05:21:16.393Z,16.16
2018-08-27T05:22:16.951Z,16.15
2018-08-27T05:23:17.508Z,16.16
2018-08-27T05:24:18.074Z,16.21
2018-08-27T05:25:18.619Z,16.23
2018-08-27T05:26:19.177Z,16.20
2018-08-27T05:27:19.737Z,16.24
2018-08-27T05:28:20.293Z,16.23
2018-08-27T05:29:20.903Z,16.27
2018-08-27T05:30:21.465Z,16.33
2018-08-27T05:31:22.035Z,16.27
2018-08-27T05:32:22.572Z,16.27
2018-08-27T05:33:23.131Z,16.35
2018-08-27T05:34:23.692Z,16.32
2018-08-27T05:35:24.248Z,16.38
2018-08-27T05:36:24.807Z,16.41
2018-08-27T05:37:25.363Z,16.42
2018-08-27T05:38:25.956Z,16.41
2018-08-27T05:39:26.471Z,16.45
2018-08-27T05:40:27.030Z,16.41
2018-08-27T05:41:27.589Z,16.38
2018-08-27T05:42:28.145Z,16.43
2018-08-27T05:43:28.705Z,16.46
2018-08-27T05:44:29.339Z,16.50
2018-08-27T05:45:29.814Z,16.51
2018-08-27T05:46:30.372Z,16.53
2018-08-27T05:47:30.930Z,16.54
2018-08-27T05:48:31.480Z,16.51
2018-08-27T05:49:32.042Z,16.41
2018-08-27T05:50:32.596Z,16.46
2018-08-27T05:51:33.150Z,16.53
2018-08-27T05:52:33.701Z,16.54
2018-08-27T05:53:34.253Z,16.51
2018-08-27T05:54:34.813Z,16.50
2018-08-27T05:55:35.374Z,16.58
2018-08-27T05:56:35.934Z,16.63
2018-08-27T05:57:36.491Z,16.64
2018-08-27T05:58:37.046Z,16.61
2018-08-27T05:59:37.612Z,16.63
2018-08-27T06:00:38.171Z,16.61
2018-08-27T06:01:38.753Z,16.63
2018-08-27T06:02:39.282Z,16.75
2018-08-27T06:03:39.846Z,16.75
2018-08-27T06:04:40.405Z,16.79
2018-08-27T06:05:40.960Z,16.75
2018-08-27T06:06:41.531Z,16.78
2018-08-27T06:07:42.090Z,16.78
2018-08-27T06:08:42.643Z,16.87
2018-08-27T06:09:43.216Z,16.81
2018-08-27T06:10:43.754Z,16.89
2018-08-27T06:11:44.315Z,16.93
2018-08-27T06:12:44.864Z,16.87
2018-08-27T06:13:45.420Z,16.91
2018-08-27T06:14:45.979Z,16.96
2018-08-27T06:15:46.535Z,16.93
2018-08-27T06:16:47.099Z,16.94
2018-08-27T06:17:47.657Z,16.91
2018-08-27T06:18:48.215Z,16.96
2018-08-27T06:19:48.777Z,16.83
2018-08-27T06:20:49.337Z,17.00
2018-08-27T06:21:49.944Z,16.98
2018-08-27T06:22:50.449Z,17.06
2018-08-27T06:23:51.013Z,16.94
2018-08-27T06:24:51.571Z,16.83
2018-08-27T06:25:52.125Z,16.90
2018-08-27T06:26:52.686Z,16.98
2018-08-27T06:27:53.242Z,17.01
2018-08-27T06:28:53.801Z,17.09
2018-08-27T06:29:54.361Z,17.01
2018-08-27T06:30:54.920Z,17.05
2018-08-27T06:31:55.485Z,17.09
2018-08-27T06:32:56.041Z,17.05
2018-08-27T06:33:56.603Z,17.09
2018-08-27T06:34:57.155Z,17.14
2018-08-27T06:35:57.713Z,17.11
2018-08-27T06:36:58.278Z,17.15
2018-08-27T06:37:58.901Z,17.14
2018-08-27T06:38:59.394Z,17.16
2018-08-27T06:39:59.964Z,17.15
2018-08-27T06:41:00.510Z,17.29
2018-08-27T06:42:01.069Z,17.18
2018-08-27T06:43:01.627Z,17.31
2018-08-27T06:44:02.213Z,17.45
2018-08-27T06:45:02.786Z,17.41
2018-08-27T06:46:03.312Z,17.34
2018-08-27T06:47:03.875Z,17.49
2018-08-27T06:48:04.439Z,17.49
2018-08-27T06:49:04.998Z,17.60
2018-08-27T06:50:05.560Z,17.59
2018-08-27T06:51:06.124Z,17.65
2018-08-27T06:52:06.682Z,17.77
2018-08-27T06:53:07.245Z,17.72
2018-08-27T06:54:07.800Z,17.74
2018-08-27T06:55:08.359Z,17.79
2018-08-27T06:56:08.921Z,17.86
2018-08-27T06:57:09.482Z,17.87
2018-08-27T06:58:10.047Z,17.85
2018-08-27T06:59:10.600Z,17.93
2018-08-27T07:00:11.161Z,17.95
2018-08-27T07:01:11.723Z,17.83
2018-08-27T07:02:12.297Z,18.00
2018-08-27T07:03:12.854Z,17.98
2018-08-27T07:04:13.409Z,18.10
2018-08-27T07:05:13.973Z,18.10
2018-08-27T07:06:14.528Z,18.14
2018-08-27T07:07:15.090Z,18.25
2018-08-27T07:08:15.645Z,18.23
2018-08-27T07:09:16.212Z,18.26
2018-08-27T07:10:16.768Z,18.35
2018-08-27T07:11:17.333Z,18.38
2018-08-27T07:12:17.894Z,18.40
2018-08-27T07:13:18.459Z,18.50
2018-08-27T07:14:19.018Z,18.56
2018-08-27T07:15:19.577Z,18.56
2018-08-27T07:16:20.140Z,18.63
2018-08-27T07:17:20.700Z,18.80
2018-08-27T07:18:21.256Z,18.80
2018-08-27T07:19:21.820Z,18.84
2018-08-27T07:20:22.397Z,18.80
2018-08-27T07:21:22.942Z,18.85
2018-08-27T07:22:23.498Z,18.84
2018-08-27T07:23:24.062Z,18.81
2018-08-27T07:24:24.620Z,18.81
2018-08-27T07:25:25.180Z,18.83
2018-08-27T07:26:25.743Z,18.81
2018-08-27T07:27:26.363Z,18.98
2018-08-27T07:28:26.867Z,18.93
2018-08-27T07:29:27.429Z,19.11
2018-08-27T07:30:27.987Z,19.07
2018-08-27T07:31:28.547Z,19.14
2018-08-27T07:32:29.112Z,19.11
2018-08-27T07:33:29.759Z,19.15
2018-08-27T07:34:30.318Z,19.07
2018-08-27T07:35:30.964Z,19.00
2018-08-27T07:36:31.479Z,19.02
2018-08-27T07:37:32.001Z,19.14
2018-08-27T07:38:32.560Z,19.11
2018-08-27T07:39:33.117Z,19.14
2018-08-27T07:40:33.683Z,19.16
2018-08-27T07:41:34.248Z,19.18
2018-08-27T07:42:34.813Z,19.30
2018-08-27T07:43:35.410Z,19.25
2018-08-27T07:44:35.933Z,19.27
2018-08-27T07:45:36.509Z,19.41
2018-08-27T07:46:37.081Z,19.43
2018-08-27T07:47:37.634Z,19.39
2018-08-27T07:48:38.197Z,19.47
2018-08-27T07:49:38.759Z,19.47
2018-08-27T07:50:39.386Z,19.58
2018-08-27T07:51:39.892Z,19.58
2018-08-27T07:52:40.453Z,19.67
2018-08-27T07:53:41.017Z,19.55
2018-08-27T07:54:41.572Z,19.58
2018-08-27T07:55:42.137Z,19.64
2018-08-27T07:56:42.699Z,19.71
2018-08-27T07:57:43.262Z,19.80
2018-08-27T07:58:43.821Z,19.92
2018-08-27T07:59:44.383Z,20.03
2018-08-27T08:00:44.944Z,20.14
2018-08-27T08:01:45.507Z,20.24
2018-08-27T08:02:46.070Z,20.31
2018-08-27T08:03:46.631Z,20.42
2018-08-27T08:04:47.229Z,20.44
2018-08-27T08:05:47.751Z,20.35
2018-08-27T08:06:48.316Z,20.26
2018-08-27T08:07:48.875Z,20.47
2018-08-27T08:08:49.439Z,20.50
2018-08-27T08:09:50.002Z,20.44
2018-08-27T08:10:50.567Z,20.59
2018-08-27T08:11:51.123Z,20.39
2018-08-27T08:12:51.681Z,20.40
2018-08-27T08:13:52.246Z,20.36
2018-08-27T08:14:52.812Z,20.24
2018-08-27T08:15:53.375Z,20.29
2018-08-27T08:16:53.942Z,20.48
2018-08-27T08:17:54.503Z,20.69
2018-08-27T08:18:55.070Z,20.75
2018-08-27T08:19:55.638Z,20.80
2018-08-27T08:20:56.202Z,20.57
2018-08-27T08:21:56.765Z,20.66
2018-08-27T08:22:57.411Z,20.69
2018-08-27T08:23:57.879Z,20.88
2018-08-27T08:24:58.444Z,21.02
2018-08-27T08:25:59.004Z,20.96
2018-08-27T08:26:59.564Z,20.96
2018-08-27T08:28:00.128Z,20.99
2018-08-27T08:29:00.694Z,21.06
2018-08-27T08:30:01.281Z,21.06
2018-08-27T08:31:01.849Z,21.15
2018-08-27T08:32:02.436Z,21.35
2018-08-27T08:33:03.019Z,21.36
2018-08-27T08:34:03.543Z,21.60
2018-08-27T08:35:04.101Z,21.72
2018-08-27T08:36:04.668Z,21.89
2018-08-27T08:37:05.238Z,22.28
2018-08-27T08:38:05.816Z,22.26
2018-08-27T08:39:06.394Z,22.62
2018-08-27T08:40:06.975Z,22.72
2018-08-27T08:41:07.519Z,22.42
2018-08-27T08:42:08.084Z,22.42
2018-08-27T08:43:08.650Z,22.36
2018-08-27T08:44:09.226Z,22.21
2018-08-27T08:45:09.791Z,22.03
2018-08-27T08:46:10.356Z,22.03
2018-08-27T08:47:10.923Z,22.29
2018-08-27T08:48:11.488Z,22.20
2018-08-27T08:49:12.055Z,22.21
2018-08-27T08:50:12.621Z,22.28
2018-08-27T08:51:13.189Z,22.42
2018-08-27T08:52:13.759Z,22.21
2018-08-27T08:53:14.325Z,22.54
2018-08-27T08:54:14.899Z,22.84
2018-08-27T08:55:15.464Z,23.10
2018-08-27T08:56:16.027Z,22.83
2018-08-27T08:57:16.597Z,22.66
2018-08-27T08:58:17.164Z,22.68
2018-08-27T08:59:17.730Z,22.78
2018-08-27T09:00:18.299Z,22.83
2018-08-27T09:01:18.886Z,22.65
2018-08-27T09:02:19.434Z,22.83
2018-08-27T09:03:19.999Z,23.00
2018-08-27T09:04:20.569Z,23.00
2018-08-27T09:05:21.142Z,23.16
2018-08-27T09:06:21.792Z,23.13
2018-08-27T09:07:22.274Z,23.15
2018-08-27T09:08:23.010Z,23.05
2018-08-27T09:09:23.546Z,22.88
2018-08-27T09:10:24.131Z,22.91
2018-08-27T09:11:24.672Z,22.81
2018-08-27T09:12:25.290Z,22.79
2018-08-27T09:13:25.871Z,22.79
2018-08-27T09:14:26.424Z,22.76
2018-08-27T09:15:26.992Z,22.97
2018-08-27T09:16:27.558Z,23.08
2018-08-27T09:17:28.150Z,22.72
2018-08-27T09:18:28.681Z,22.69
2018-08-27T09:19:29.249Z,22.70
2018-08-27T09:20:29.814Z,22.38
2018-08-27T09:21:30.384Z,22.48
2018-08-27T09:22:30.948Z,22.44
2018-08-27T09:23:31.523Z,22.60
2018-08-27T09:24:32.495Z,22.54
2018-08-27T09:25:33.270Z,22.48
2018-08-27T09:26:33.842Z,22.46
2018-08-27T09:27:34.409Z,22.17
2018-08-27T09:28:34.976Z,22.29
2018-08-27T09:29:35.544Z,22.02
2018-08-27T09:30:36.112Z,21.99
2018-08-27T09:31:36.672Z,21.91
2018-08-27T09:32:37.229Z,21.79
2018-08-27T09:33:37.795Z,21.83
2018-08-27T09:34:38.357Z,21.93
2018-08-27T09:35:38.919Z,21.93
2018-08-27T09:36:39.491Z,21.92
2018-08-27T09:37:40.106Z,21.91
2018-08-27T09:38:40.626Z,21.99
2018-08-27T09:39:41.203Z,21.89
2018-08-27T09:40:41.759Z,21.83
2018-08-27T09:41:42.455Z,22.07
2018-08-27T09:42:42.936Z,22.03
2018-08-27T09:43:43.495Z,22.17
2018-08-27T09:44:44.063Z,22.20
2018-08-27T09:45:44.635Z,22.40
2018-08-27T09:46:45.232Z,22.66
2018-08-27T09:47:45.768Z,23.12
2018-08-27T09:48:46.339Z,23.53
2018-08-27T09:49:46.918Z,23.80
2018-08-27T09:50:47.497Z,23.81
2018-08-27T09:51:48.049Z,23.74
2018-08-27T09:52:48.727Z,23.58
2018-08-27T09:53:49.179Z,23.37
2018-08-27T09:54:49.747Z,23.49
2018-08-27T09:55:50.315Z,23.13
2018-08-27T09:56:50.889Z,23.05
2018-08-27T09:57:51.455Z,23.44
2018-08-27T09:58:52.091Z,23.76
2018-08-27T09:59:52.586Z,24.01
2018-08-27T10:00:53.157Z,24.03
2018-08-27T10:01:53.725Z,24.42
2018-08-27T10:02:54.498Z,24.60
2018-08-27T10:03:55.071Z,24.56
2018-08-27T10:04:55.643Z,24.46
2018-08-27T10:05:56.212Z,24.69
2018-08-27T10:06:56.799Z,25.04
2018-08-27T10:07:57.355Z,25.02
2018-08-27T10:08:57.989Z,25.10
2018-08-27T10:09:58.496Z,25.20
2018-08-27T10:10:59.066Z,25.04
2018-08-27T10:11:59.633Z,25.28
2018-08-27T10:13:00.209Z,25.56
2018-08-27T10:14:00.778Z,25.33
2018-08-27T10:15:01.434Z,25.09
2018-08-27T10:16:01.916Z,25.31
2018-08-27T10:17:02.486Z,25.10
2018-08-27T10:18:03.050Z,25.29
2018-08-27T10:19:03.620Z,25.17
2018-08-27T10:20:04.241Z,25.06
2018-08-27T10:21:04.816Z,24.98
2018-08-27T10:22:05.409Z,24.95
2018-08-27T10:23:05.960Z,25.04
2018-08-27T10:24:06.524Z,24.99
2018-08-27T10:25:07.090Z,24.74
2018-08-27T10:26:07.653Z,24.74
2018-08-27T10:27:08.224Z,25.02
2018-08-27T10:28:08.796Z,25.04
2018-08-27T10:29:09.361Z,24.91
2018-08-27T10:30:10.047Z,24.70
2018-08-27T10:31:10.622Z,24.88
2018-08-27T10:32:11.193Z,24.81
2018-08-27T10:33:11.770Z,24.79
2018-08-27T10:34:12.343Z,25.04
2018-08-27T10:35:12.918Z,25.14
2018-08-27T10:36:13.474Z,24.95
2018-08-27T10:37:14.057Z,25.13
2018-08-27T10:38:14.618Z,24.92
2018-08-27T10:39:15.182Z,24.99
2018-08-27T10:40:15.750Z,24.98
2018-08-27T10:41:16.320Z,24.81
2018-08-27T10:42:16.895Z,24.60
2018-08-27T10:43:17.469Z,24.53
2018-08-27T10:44:18.040Z,24.57
2018-08-27T10:45:18.613Z,24.53
2018-08-27T10:46:19.180Z,24.63
2018-08-27T10:47:19.746Z,24.11
2018-08-27T10:48:20.308Z,23.76
2018-08-27T10:49:20.877Z,23.56
2018-08-27T10:50:21.534Z,23.58
2018-08-27T10:51:22.013Z,23.72
2018-08-27T10:52:22.582Z,23.99
2018-08-27T10:53:23.148Z,24.48
2018-08-27T10:54:23.723Z,24.74
2018-08-27T10:55:24.295Z,25.14
2018-08-27T10:56:24.851Z,25.43
2018-08-27T10:57:25.414Z,25.65
2018-08-27T10:58:26.052Z,25.73
2018-08-27T10:59:26.540Z,25.35
2018-08-27T11:00:27.116Z,24.94
2018-08-27T11:01:27.697Z,24.79
2018-08-27T11:02:28.267Z,24.84
2018-08-27T11:03:28.852Z,25.01
2018-08-27T11:04:29.420Z,24.79
2018-08-27T11:05:29.979Z,24.92
2018-08-27T11:06:30.547Z,25.04
2018-08-27T11:07:31.122Z,24.77
2018-08-27T11:08:31.700Z,24.61
2018-08-27T11:09:32.263Z,24.66
2018-08-27T11:10:32.895Z,24.76
2018-08-27T11:11:33.392Z,24.69
2018-08-27T11:12:34.267Z,24.80
2018-08-27T11:13:34.783Z,24.83
2018-08-27T11:14:35.345Z,24.80
2018-08-27T11:15:35.909Z,24.42
2018-08-27T11:16:36.479Z,24.54
2018-08-27T11:17:37.045Z,24.35
2018-08-27T11:18:37.602Z,24.27
2018-08-27T11:19:38.273Z,24.32
2018-08-27T11:20:38.921Z,24.42
2018-08-27T11:21:39.302Z,24.64
2018-08-27T11:22:39.872Z,24.95
2018-08-27T11:23:40.475Z,25.28
2018-08-27T11:24:41.029Z,25.78
2018-08-27T11:25:41.601Z,25.95
2018-08-27T11:26:42.470Z,25.88
2018-08-27T11:27:42.732Z,25.61
2018-08-27T11:28:43.323Z,25.81
2018-08-27T11:29:43.872Z,25.91
2018-08-27T11:30:44.442Z,25.99
2018-08-27T11:31:45.013Z,26.41
2018-08-27T11:32:45.582Z,26.24
2018-08-27T11:33:46.148Z,26.21
2018-08-27T11:34:46.710Z,26.03
2018-08-27T11:35:47.604Z,25.94
2018-08-27T11:36:48.071Z,25.43
2018-08-27T11:37:48.638Z,25.36
2018-08-27T11:38:49.202Z,24.99
2018-08-27T11:39:49.766Z,24.96
2018-08-27T11:40:50.422Z,24.89
2018-08-27T11:41:50.986Z,24.86
2018-08-27T11:42:51.554Z,24.53
2018-08-27T11:43:52.125Z,24.33
2018-08-27T11:44:52.696Z,24.50
2018-08-27T11:45:53.253Z,24.92
2018-08-27T11:46:53.819Z,25.04
2018-08-27T11:47:54.389Z,25.25
2018-08-27T11:48:54.958Z,25.66
2018-08-27T11:49:55.577Z,25.71
2018-08-27T11:50:56.324Z,25.72
2018-08-27T11:51:56.752Z,25.62
2018-08-27T11:52:57.350Z,25.98
2018-08-27T11:53:57.951Z,26.19
2018-08-27T11:54:58.565Z,26.40
2018-08-27T11:55:59.080Z,26.47
2018-08-27T11:56:59.647Z,26.84
2018-08-27T11:58:00.246Z,26.87
2018-08-27T11:59:00.813Z,27.03
2018-08-27T12:00:01.383Z,27.03
2018-08-27T12:01:02.007Z,27.20
2018-08-27T12:02:02.588Z,27.61
2018-08-27T12:03:03.087Z,27.73
2018-08-27T12:04:03.659Z,27.63
2018-08-27T12:05:04.230Z,27.62
2018-08-27T12:06:04.803Z,27.80
2018-08-27T12:07:05.371Z,28.00
2018-08-27T12:08:05.936Z,27.95
2018-08-27T12:09:06.508Z,28.22
2018-08-27T12:10:07.084Z,28.45
2018-08-27T12:11:07.651Z,28.40
2018-08-27T12:12:08.222Z,28.40
2018-08-27T12:13:08.798Z,28.33
2018-08-27T12:14:09.362Z,28.29
2018-08-27T12:15:09.935Z,28.17
2018-08-27T12:16:10.500Z,28.30
2018-08-27T12:17:11.072Z,28.22
2018-08-27T12:18:11.642Z,28.30
2018-08-27T12:19:12.219Z,28.40
2018-08-27T12:20:12.795Z,28.66
2018-08-27T12:21:13.366Z,28.79
2018-08-27T12:22:13.941Z,28.30
2018-08-27T12:23:14.512Z,28.60
2018-08-27T12:24:15.089Z,28.73
2018-08-27T12:25:15.657Z,29.08
2018-08-27T12:26:16.231Z,29.10
2018-08-27T12:27:16.805Z,28.63
2018-08-27T12:28:17.380Z,28.04
2018-08-27T12:29:17.969Z,28.03
2018-08-27T12:30:18.522Z,28.14
2018-08-27T12:31:19.089Z,28.26
2018-08-27T12:32:19.680Z,27.98
2018-08-27T12:33:20.247Z,27.71
2018-08-27T12:34:20.821Z,27.20
2018-08-27T12:35:21.401Z,26.93
2018-08-27T12:36:21.972Z,26.48
2018-08-27T12:37:22.553Z,26.21
2018-08-27T12:38:23.125Z,26.18
2018-08-27T12:39:23.694Z,25.99
2018-08-27T12:40:24.306Z,25.98
2018-08-27T12:41:24.850Z,25.72
2018-08-27T12:42:25.418Z,25.44
2018-08-27T12:43:26.034Z,25.35
2018-08-27T12:44:26.553Z,25.33
2018-08-27T12:45:27.119Z,25.41
2018-08-27T12:46:27.694Z,25.38
2018-08-27T12:47:28.262Z,25.07
2018-08-27T12:48:28.823Z,24.96
2018-08-27T12:49:29.395Z,24.73
2018-08-27T12:50:29.962Z,24.43
2018-08-27T12:51:30.539Z,24.39
2018-08-27T12:52:31.105Z,24.24
2018-08-27T12:53:31.674Z,24.18
2018-08-27T12:54:32.251Z,23.96
2018-08-27T12:55:32.812Z,23.98
2018-08-27T12:56:33.383Z,24.01
2018-08-27T12:57:33.950Z,24.16
2018-08-27T12:58:34.592Z,24.31
2018-08-27T12:59:35.069Z,24.41
2018-08-27T13:00:35.630Z,24.24